sensor_id;sensor_type;location;lat;lon;timestamp;pressure;altitude;pressure_sealevel;temperature;humidity
80164;BME280;70071;55.130;61.268;2023-11-21T00:00:38;99361.06;;;-1.00;41.65
80164;BME280;70071;55.130;61.268;2023-11-21T00:03:04;99374.19;;;-1.01;41.78
80164;BME280;70071;55.130;61.268;2023-11-21T00:05:30;99355.41;;;-1.07;41.77
80164;BME280;70071;55.130;61.268;2023-11-21T00:07:56;99382.31;;;-0.93;41.72
80164;BME280;70071;55.130;61.268;2023-11-21T00:10:22;99386.81;;;-0.82;41.97
80164;BME280;70071;55.130;61.268;2023-11-21T00:12:48;99355.94;;;-1.01;41.65
80164;BME280;70071;55.130;61.268;2023-11-21T00:15:14;99364.38;;;-0.98;42.40
80164;BME280;70071;55.130;61.268;2023-11-21T00:17:40;99406.31;;;-0.75;42.15
80164;BME280;70071;55.130;61.268;2023-11-21T00:20:09;99386.91;;;-0.84;42.35
80164;BME280;70071;55.130;61.268;2023-11-21T00:22:38;99350.84;;;-1.03;41.89
80164;BME280;70071;55.130;61.268;2023-11-21T00:25:04;99373.56;;;-0.92;42.21
80164;BME280;70071;55.130;61.268;2023-11-21T00:27:32;99393.59;;;-0.80;42.00
80164;BME280;70071;55.130;61.268;2023-11-21T00:29:57;99359.06;;;-0.96;42.33
80164;BME280;70071;55.130;61.268;2023-11-21T00:32:23;99383.47;;;-0.72;42.33
80164;BME280;70071;55.130;61.268;2023-11-21T00:34:49;99390.78;;;-0.64;42.05
80164;BME280;70071;55.130;61.268;2023-11-21T00:37:16;99340.94;;;-0.98;42.79
80164;BME280;70071;55.130;61.268;2023-11-21T00:39:42;99341.13;;;-1.01;42.82
80164;BME280;70071;55.130;61.268;2023-11-21T00:42:08;99352.09;;;-0.83;41.87
80164;BME280;70071;55.130;61.268;2023-11-21T00:44:34;99344.66;;;-1.02;42.35
80164;BME280;70071;55.130;61.268;2023-11-21T00:47:03;99333.63;;;-1.05;42.68
80164;BME280;70071;55.130;61.268;2023-11-21T00:49:29;99336.44;;;-0.96;42.20
80164;BME280;70071;55.130;61.268;2023-11-21T00:51:55;99357.94;;;-0.79;42.81
80164;BME280;70071;55.130;61.268;2023-11-21T00:54:21;99339.91;;;-0.82;42.18
80164;BME280;70071;55.130;61.268;2023-11-21T00:56:47;99358.91;;;-0.80;42.22
80164;BME280;70071;55.130;61.268;2023-11-21T00:59:13;99373.88;;;-0.84;42.60
80164;BME280;70071;55.130;61.268;2023-11-21T01:01:39;99348.44;;;-0.93;42.30
80164;BME280;70071;55.130;61.268;2023-11-21T01:04:06;99358.47;;;-0.74;42.80
80164;BME280;70071;55.130;61.268;2023-11-21T01:06:34;99314.69;;;-0.95;42.85
80164;BME280;70071;55.130;61.268;2023-11-21T01:09:00;99337.41;;;-0.84;43.06
80164;BME280;70071;55.130;61.268;2023-11-21T01:11:26;99359.09;;;-0.70;42.67
80164;BME280;70071;55.130;61.268;2023-11-21T01:13:52;99370.78;;;-0.63;42.77
80164;BME280;70071;55.130;61.268;2023-11-21T01:16:19;99329.19;;;-0.91;42.50
80164;BME280;70071;55.130;61.268;2023-11-21T01:18:45;99332.63;;;-0.77;42.12
80164;BME280;70071;55.130;61.268;2023-11-21T01:21:11;99359.94;;;-0.57;42.29
80164;BME280;70071;55.130;61.268;2023-11-21T01:23:37;99327.41;;;-0.64;42.22
80164;BME280;70071;55.130;61.268;2023-11-21T01:26:03;99321.66;;;-0.82;42.46
80164;BME280;70071;55.130;61.268;2023-11-21T01:28:29;99316.03;;;-0.89;42.92
80164;BME280;70071;55.130;61.268;2023-11-21T01:30:55;99310.00;;;-0.77;42.56
80164;BME280;70071;55.130;61.268;2023-11-21T01:33:22;99303.13;;;-0.91;42.47
80164;BME280;70071;55.130;61.268;2023-11-21T01:35:50;99320.53;;;-0.78;42.93
80164;BME280;70071;55.130;61.268;2023-11-21T01:38:18;99345.22;;;-0.58;42.89
80164;BME280;70071;55.130;61.268;2023-11-21T01:40:44;99280.09;;;-0.84;42.75
80164;BME280;70071;55.130;61.268;2023-11-21T01:43:10;99278.03;;;-0.79;43.47
80164;BME280;70071;55.130;61.268;2023-11-21T01:45:36;99262.16;;;-0.88;43.43
80164;BME280;70071;55.130;61.268;2023-11-21T01:48:02;99268.53;;;-0.93;43.50
80164;BME280;70071;55.130;61.268;2023-11-21T01:50:29;99312.91;;;-0.68;43.85
80164;BME280;70071;55.130;61.268;2023-11-21T01:52:55;99282.50;;;-0.68;43.44
80164;BME280;70071;55.130;61.268;2023-11-21T01:55:21;99246.44;;;-0.87;43.39
80164;BME280;70071;55.130;61.268;2023-11-21T01:57:48;99268.53;;;-0.80;43.77
80164;BME280;70071;55.130;61.268;2023-11-21T02:00:14;99251.22;;;-0.81;43.71
80164;BME280;70071;55.130;61.268;2023-11-21T02:02:46;99264.16;;;-0.66;44.27
80164;BME280;70071;55.130;61.268;2023-11-21T02:05:17;99216.53;;;-0.94;44.41
80164;BME280;70071;55.130;61.268;2023-11-21T02:07:44;99251.53;;;-0.73;43.98
80164;BME280;70071;55.130;61.268;2023-11-21T02:10:11;99258.94;;;-0.66;44.52
80164;BME280;70071;55.130;61.268;2023-11-21T02:12:44;99250.91;;;-0.63;44.32
80164;BME280;70071;55.130;61.268;2023-11-21T02:15:12;99228.63;;;-0.80;44.54
80164;BME280;70071;55.130;61.268;2023-11-21T02:17:46;99245.22;;;-0.31;44.16
80164;BME280;70071;55.130;61.268;2023-11-21T02:20:13;99212.41;;;-0.60;43.90
80164;BME280;70071;55.130;61.268;2023-11-21T02:22:48;99245.03;;;-0.54;44.62
80164;BME280;70071;55.130;61.268;2023-11-21T02:25:15;99231.91;;;-0.65;44.29
80164;BME280;70071;55.130;61.268;2023-11-21T02:27:41;99212.31;;;-0.58;43.99
80164;BME280;70071;55.130;61.268;2023-11-21T02:30:09;99185.03;;;-0.78;44.77
80164;BME280;70071;55.130;61.268;2023-11-21T02:32:38;99226.19;;;-0.58;44.58
80164;BME280;70071;55.130;61.268;2023-11-21T02:35:05;99229.41;;;-0.54;44.88
80164;BME280;70071;55.130;61.268;2023-11-21T02:37:34;99193.34;;;-0.60;44.40
80164;BME280;70071;55.130;61.268;2023-11-21T02:40:01;99168.88;;;-0.70;44.95
80164;BME280;70071;55.130;61.268;2023-11-21T02:42:31;99172.50;;;-0.60;44.70
80164;BME280;70071;55.130;61.268;2023-11-21T02:44:57;99158.34;;;-0.69;45.14
80164;BME280;70071;55.130;61.268;2023-11-21T02:47:23;99148.34;;;-0.75;44.96
80164;BME280;70071;55.130;61.268;2023-11-21T02:49:51;99180.09;;;-0.57;45.53
80164;BME280;70071;55.130;61.268;2023-11-21T02:52:18;99153.81;;;-0.91;45.57
80164;BME280;70071;55.130;61.268;2023-11-21T02:54:44;99147.44;;;-0.87;45.57
80164;BME280;70071;55.130;61.268;2023-11-21T02:57:10;99150.88;;;-0.86;45.60
80164;BME280;70071;55.130;61.268;2023-11-21T02:59:36;99131.81;;;-0.87;45.48
80164;BME280;70071;55.130;61.268;2023-11-21T03:02:02;99126.16;;;-0.81;45.48
80164;BME280;70071;55.130;61.268;2023-11-21T03:04:28;99127.50;;;-0.75;45.78
80164;BME280;70071;55.130;61.268;2023-11-21T03:06:54;99154.75;;;-0.55;45.26
80164;BME280;70071;55.130;61.268;2023-11-21T03:09:20;99113.00;;;-0.66;45.39
80164;BME280;70071;55.130;61.268;2023-11-21T03:11:46;99133.41;;;-0.60;45.12
80164;BME280;70071;55.130;61.268;2023-11-21T03:14:12;99119.63;;;-0.62;45.69
80164;BME280;70071;55.130;61.268;2023-11-21T03:16:37;99112.59;;;-0.73;45.73
80164;BME280;70071;55.130;61.268;2023-11-21T03:19:04;99114.34;;;-0.61;45.47
80164;BME280;70071;55.130;61.268;2023-11-21T03:21:30;99106.28;;;-0.82;45.91
80164;BME280;70071;55.130;61.268;2023-11-21T03:23:56;99104.16;;;-0.77;45.70
80164;BME280;70071;55.130;61.268;2023-11-21T03:26:22;99100.28;;;-0.71;45.36
80164;BME280;70071;55.130;61.268;2023-11-21T03:28:48;99096.41;;;-0.65;45.54
80164;BME280;70071;55.130;61.268;2023-11-21T03:31:15;99103.81;;;-0.59;46.30
80164;BME280;70071;55.130;61.268;2023-11-21T03:33:42;99071.22;;;-0.78;46.30
80164;BME280;70071;55.130;61.268;2023-11-21T03:36:08;99121.81;;;-0.56;46.35
80164;BME280;70071;55.130;61.268;2023-11-21T03:38:34;99104.97;;;-0.63;45.92
80164;BME280;70071;55.130;61.268;2023-11-21T03:41:00;99076.75;;;-0.82;46.27
80164;BME280;70071;55.130;61.268;2023-11-21T03:43:26;99082.72;;;-0.80;46.53
80164;BME280;70071;55.130;61.268;2023-11-21T03:45:52;99116.94;;;-0.61;46.62
80164;BME280;70071;55.130;61.268;2023-11-21T03:48:18;99079.25;;;-0.81;46.56
80164;BME280;70071;55.130;61.268;2023-11-21T03:50:44;99104.63;;;-0.59;46.45
80164;BME280;70071;55.130;61.268;2023-11-21T03:53:09;99061.91;;;-0.69;46.47
80164;BME280;70071;55.130;61.268;2023-11-21T03:55:36;99056.78;;;-0.82;46.87
80164;BME280;70071;55.130;61.268;2023-11-21T03:58:02;99074.13;;;-0.69;46.77
80164;BME280;70071;55.130;61.268;2023-11-21T04:00:28;99052.50;;;-0.83;46.75
80164;BME280;70071;55.130;61.268;2023-11-21T04:02:54;99034.97;;;-0.81;46.66
80164;BME280;70071;55.130;61.268;2023-11-21T04:05:20;99041.31;;;-0.72;46.60
80164;BME280;70071;55.130;61.268;2023-11-21T04:07:50;99009.53;;;-0.77;46.55
80164;BME280;70071;55.130;61.268;2023-11-21T04:10:19;99015.53;;;-0.88;46.98
80164;BME280;70071;55.130;61.268;2023-11-21T04:12:45;99039.94;;;-0.54;47.10
80164;BME280;70071;55.130;61.268;2023-11-21T04:15:12;99000.41;;;-0.83;47.07
80164;BME280;70071;55.130;61.268;2023-11-21T04:17:40;98985.31;;;-0.66;46.68
80164;BME280;70071;55.130;61.268;2023-11-21T04:20:07;99002.63;;;-0.54;46.84
80164;BME280;70071;55.130;61.268;2023-11-21T04:22:41;99002.97;;;-0.59;46.93
80164;BME280;70071;55.130;61.268;2023-11-21T04:25:10;98996.06;;;-0.71;46.82
80164;BME280;70071;55.130;61.268;2023-11-21T04:27:39;98958.22;;;-0.88;46.87
80164;BME280;70071;55.130;61.268;2023-11-21T04:30:05;98988.06;;;-0.57;46.56
80164;BME280;70071;55.130;61.268;2023-11-21T04:32:31;98983.63;;;-0.67;46.52
80164;BME280;70071;55.130;61.268;2023-11-21T04:34:57;98997.88;;;-0.60;46.87
80164;BME280;70071;55.130;61.268;2023-11-21T04:37:23;99011.09;;;-0.39;45.94
80164;BME280;70071;55.130;61.268;2023-11-21T04:39:50;98985.16;;;-0.41;46.13
80164;BME280;70071;55.130;61.268;2023-11-21T04:42:16;98972.97;;;-0.64;46.43
80164;BME280;70071;55.130;61.268;2023-11-21T04:44:41;98998.03;;;-0.50;46.85
80164;BME280;70071;55.130;61.268;2023-11-21T04:47:10;98995.59;;;-0.41;46.03
80164;BME280;70071;55.130;61.268;2023-11-21T04:49:36;98961.28;;;-0.59;46.18
80164;BME280;70071;55.130;61.268;2023-11-21T04:52:02;98956.19;;;-0.49;45.72
80164;BME280;70071;55.130;61.268;2023-11-21T04:54:30;98987.06;;;-0.20;45.99
80164;BME280;70071;55.130;61.268;2023-11-21T04:56:56;98987.06;;;-0.31;46.15
80164;BME280;70071;55.130;61.268;2023-11-21T04:59:22;98963.38;;;-0.28;46.07
80164;BME280;70071;55.130;61.268;2023-11-21T05:01:53;98940.84;;;-0.29;46.05
80164;BME280;70071;55.130;61.268;2023-11-21T05:04:20;98964.44;;;-0.31;46.36
80164;BME280;70071;55.130;61.268;2023-11-21T05:06:48;98944.59;;;-0.56;46.23
80164;BME280;70071;55.130;61.268;2023-11-21T05:09:14;98923.88;;;-0.58;46.58
80164;BME280;70071;55.130;61.268;2023-11-21T05:11:41;98956.94;;;-0.36;46.75
80164;BME280;70071;55.130;61.268;2023-11-21T05:14:07;98935.34;;;-0.49;45.95
80164;BME280;70071;55.130;61.268;2023-11-21T05:16:37;98958.63;;;-0.23;46.15
80164;BME280;70071;55.130;61.268;2023-11-21T05:19:03;98956.00;;;-0.34;46.39
80164;BME280;70071;55.130;61.268;2023-11-21T05:21:30;98956.25;;;-0.26;46.11
80164;BME280;70071;55.130;61.268;2023-11-21T05:23:59;98915.13;;;-0.34;45.96
80164;BME280;70071;55.130;61.268;2023-11-21T05:26:26;98935.88;;;-0.21;45.78
80164;BME280;70071;55.130;61.268;2023-11-21T05:28:51;98933.28;;;-0.21;45.97
80164;BME280;70071;55.130;61.268;2023-11-21T05:31:17;98928.97;;;-0.33;46.23
80164;BME280;70071;55.130;61.268;2023-11-21T05:33:45;98916.78;;;-0.33;45.96
80164;BME280;70071;55.130;61.268;2023-11-21T05:36:11;98926.50;;;-0.24;46.49
80164;BME280;70071;55.130;61.268;2023-11-21T05:38:37;98887.66;;;-0.04;45.52
80164;BME280;70071;55.130;61.268;2023-11-21T05:41:06;98875.69;;;-0.18;45.75
80164;BME280;70071;55.130;61.268;2023-11-21T05:43:32;98906.38;;;-0.10;45.91
80164;BME280;70071;55.130;61.268;2023-11-21T05:46:01;98886.09;;;-0.41;45.81
80164;BME280;70071;55.130;61.268;2023-11-21T05:48:27;98889.88;;;-0.22;46.04
80164;BME280;70071;55.130;61.268;2023-11-21T05:50:53;98876.03;;;-0.11;46.15
80164;BME280;70071;55.130;61.268;2023-11-21T05:53:19;98909.09;;;0.11;45.68
80164;BME280;70071;55.130;61.268;2023-11-21T05:55:45;98890.94;;;-0.02;45.67
80164;BME280;70071;55.130;61.268;2023-11-21T05:58:11;98874.47;;;-0.14;45.66
80164;BME280;70071;55.130;61.268;2023-11-21T06:00:39;98861.53;;;-0.15;45.70
80164;BME280;70071;55.130;61.268;2023-11-21T06:03:06;98863.44;;;0.05;45.59
80164;BME280;70071;55.130;61.268;2023-11-21T06:05:33;98890.59;;;0.03;45.67
80164;BME280;70071;55.130;61.268;2023-11-21T06:07:59;98847.31;;;0.11;45.07
80164;BME280;70071;55.130;61.268;2023-11-21T06:10:27;98859.41;;;0.01;45.39
80164;BME280;70071;55.130;61.268;2023-11-21T06:12:54;98857.88;;;0.10;45.38
80164;BME280;70071;55.130;61.268;2023-11-21T06:15:21;98855.03;;;0.02;45.38
80164;BME280;70071;55.130;61.268;2023-11-21T06:17:48;98855.00;;;0.13;45.21
80164;BME280;70071;55.130;61.268;2023-11-21T06:20:19;98861.03;;;0.25;45.71
80164;BME280;70071;55.130;61.268;2023-11-21T06:22:47;98870.72;;;0.45;45.28
80164;BME280;70071;55.130;61.268;2023-11-21T06:25:13;98836.59;;;0.26;45.38
80164;BME280;70071;55.130;61.268;2023-11-21T06:27:43;98832.94;;;0.17;45.40
80164;BME280;70071;55.130;61.268;2023-11-21T06:30:14;98862.56;;;0.27;45.76
80164;BME280;70071;55.130;61.268;2023-11-21T06:32:42;98858.16;;;0.39;45.57
80164;BME280;70071;55.130;61.268;2023-11-21T06:35:11;98862.09;;;0.33;45.14
80164;BME280;70071;55.130;61.268;2023-11-21T06:37:39;98824.66;;;0.12;44.76
80164;BME280;70071;55.130;61.268;2023-11-21T06:40:05;98823.66;;;0.24;44.00
80164;BME280;70071;55.130;61.268;2023-11-21T06:42:32;98834.09;;;0.35;44.69
80164;BME280;70071;55.130;61.268;2023-11-21T06:45:00;98839.06;;;0.39;44.63
80164;BME280;70071;55.130;61.268;2023-11-21T06:47:30;98843.88;;;0.55;43.91
80164;BME280;70071;55.130;61.268;2023-11-21T06:49:56;98800.16;;;0.35;43.92
80164;BME280;70071;55.130;61.268;2023-11-21T06:52:23;98812.72;;;0.30;43.49
80164;BME280;70071;55.130;61.268;2023-11-21T06:54:49;98810.03;;;0.53;43.74
80164;BME280;70071;55.130;61.268;2023-11-21T06:57:18;98819.13;;;0.70;43.08
80164;BME280;70071;55.130;61.268;2023-11-21T06:59:44;98780.13;;;0.57;43.17
80164;BME280;70071;55.130;61.268;2023-11-21T07:02:10;98774.41;;;0.63;43.19
80164;BME280;70071;55.130;61.268;2023-11-21T07:04:36;98803.53;;;0.80;43.43
80164;BME280;70071;55.130;61.268;2023-11-21T07:07:03;98792.69;;;0.84;43.47
80164;BME280;70071;55.130;61.268;2023-11-21T07:09:30;98795.03;;;0.66;43.48
80164;BME280;70071;55.130;61.268;2023-11-21T07:11:57;98766.66;;;0.73;43.03
80164;BME280;70071;55.130;61.268;2023-11-21T07:14:23;98742.16;;;0.74;42.82
80164;BME280;70071;55.130;61.268;2023-11-21T07:16:49;98778.47;;;0.98;42.82
80164;BME280;70071;55.130;61.268;2023-11-21T07:19:16;98761.72;;;1.01;42.92
80164;BME280;70071;55.130;61.268;2023-11-21T07:21:42;98756.06;;;0.96;42.56
80164;BME280;70071;55.130;61.268;2023-11-21T07:24:09;98754.44;;;1.04;42.81
80164;BME280;70071;55.130;61.268;2023-11-21T07:26:35;98733.28;;;1.08;42.44
80164;BME280;70071;55.130;61.268;2023-11-21T07:29:02;98745.00;;;1.13;42.84
80164;BME280;70071;55.130;61.268;2023-11-21T07:31:28;98742.66;;;1.10;42.81
80164;BME280;70071;55.130;61.268;2023-11-21T07:33:55;98690.41;;;0.79;42.63
80164;BME280;70071;55.130;61.268;2023-11-21T07:36:24;98714.69;;;1.01;42.56
80164;BME280;70071;55.130;61.268;2023-11-21T07:38:50;98710.22;;;1.13;42.52
80164;BME280;70071;55.130;61.268;2023-11-21T07:41:17;98724.47;;;1.30;42.55
80164;BME280;70071;55.130;61.268;2023-11-21T07:43:44;98705.25;;;1.10;42.11
80164;BME280;70071;55.130;61.268;2023-11-21T07:46:12;98723.78;;;1.28;42.43
80164;BME280;70071;55.130;61.268;2023-11-21T07:48:38;98723.78;;;1.37;42.05
80164;BME280;70071;55.130;61.268;2023-11-21T07:51:04;98724.59;;;1.28;42.10
80164;BME280;70071;55.130;61.268;2023-11-21T07:53:31;98690.47;;;1.30;41.64
80164;BME280;70071;55.130;61.268;2023-11-21T07:55:58;98696.13;;;1.35;41.77
80164;BME280;70071;55.130;61.268;2023-11-21T07:58:24;98712.13;;;1.51;42.31
80164;BME280;70071;55.130;61.268;2023-11-21T08:00:50;98675.06;;;1.27;42.45
80164;BME280;70071;55.130;61.268;2023-11-21T08:03:16;98667.75;;;1.20;42.46
80164;BME280;70071;55.130;61.268;2023-11-21T08:05:42;98691.34;;;1.40;42.51
80164;BME280;70071;55.130;61.268;2023-11-21T08:08:09;98667.09;;;1.38;41.68
80164;BME280;70071;55.130;61.268;2023-11-21T08:10:35;98696.59;;;1.50;42.12
80164;BME280;70071;55.130;61.268;2023-11-21T08:13:05;98667.41;;;1.45;41.95
80164;BME280;70071;55.130;61.268;2023-11-21T08:15:32;98661.06;;;1.37;41.98
80164;BME280;70071;55.130;61.268;2023-11-21T08:17:58;98691.78;;;1.55;41.81
80164;BME280;70071;55.130;61.268;2023-11-21T08:20:25;98679.09;;;1.50;42.06
80164;BME280;70071;55.130;61.268;2023-11-21T08:22:51;98678.28;;;1.40;41.86
80164;BME280;70071;55.130;61.268;2023-11-21T08:25:22;98651.13;;;1.31;42.00
80164;BME280;70071;55.130;61.268;2023-11-21T08:27:48;98651.28;;;1.30;41.87
80164;BME280;70071;55.130;61.268;2023-11-21T08:30:14;98651.94;;;1.22;42.46
80164;BME280;70071;55.130;61.268;2023-11-21T08:32:42;98636.72;;;1.37;42.23
80164;BME280;70071;55.130;61.268;2023-11-21T08:35:10;98625.00;;;1.41;42.13
80164;BME280;70071;55.130;61.268;2023-11-21T08:37:37;98656.69;;;1.57;42.24
80164;BME280;70071;55.130;61.268;2023-11-21T08:40:05;98640.16;;;1.47;42.18
80164;BME280;70071;55.130;61.268;2023-11-21T08:42:35;98640.31;;;1.55;42.29
80164;BME280;70071;55.130;61.268;2023-11-21T08:45:02;98594.16;;;1.35;42.05
80164;BME280;70071;55.130;61.268;2023-11-21T08:47:31;98593.91;;;1.28;42.83
80164;BME280;70071;55.130;61.268;2023-11-21T08:49:57;98597.91;;;1.52;42.45
80164;BME280;70071;55.130;61.268;2023-11-21T08:52:24;98608.34;;;1.52;42.63
80164;BME280;70071;55.130;61.268;2023-11-21T08:54:50;98563.22;;;1.20;42.60
80164;BME280;70071;55.130;61.268;2023-11-21T08:57:23;98568.16;;;1.33;43.05
80164;BME280;70071;55.130;61.268;2023-11-21T08:59:49;98591.03;;;1.51;42.82
80164;BME280;70071;55.130;61.268;2023-11-21T09:02:21;98571.34;;;1.47;42.59
80164;BME280;70071;55.130;61.268;2023-11-21T09:04:49;98549.88;;;1.53;42.37
80164;BME280;70071;55.130;61.268;2023-11-21T09:07:16;98539.00;;;1.38;42.74
80164;BME280;70071;55.130;61.268;2023-11-21T09:09:42;98514.94;;;1.24;42.66
80164;BME280;70071;55.130;61.268;2023-11-21T09:12:08;98548.91;;;1.44;43.07
80164;BME280;70071;55.130;61.268;2023-11-21T09:14:38;98516.97;;;1.21;43.23
80164;BME280;70071;55.130;61.268;2023-11-21T09:17:05;98507.63;;;1.09;43.08
80164;BME280;70071;55.130;61.268;2023-11-21T09:19:40;98527.88;;;1.26;43.24
80164;BME280;70071;55.130;61.268;2023-11-21T09:22:07;98526.91;;;1.17;43.90
80164;BME280;70071;55.130;61.268;2023-11-21T09:24:33;98514.41;;;1.31;43.83
80164;BME280;70071;55.130;61.268;2023-11-21T09:27:00;98498.16;;;1.37;43.79
80164;BME280;70071;55.130;61.268;2023-11-21T09:29:27;98498.56;;;1.32;43.91
80164;BME280;70071;55.130;61.268;2023-11-21T09:31:52;98494.03;;;1.34;43.90
80164;BME280;70071;55.130;61.268;2023-11-21T09:34:21;98499.25;;;1.34;43.98
80164;BME280;70071;55.130;61.268;2023-11-21T09:36:47;98468.00;;;1.23;44.32
80164;BME280;70071;55.130;61.268;2023-11-21T09:39:14;98450.28;;;1.46;43.51
80164;BME280;70071;55.130;61.268;2023-11-21T09:41:44;98446.00;;;1.26;44.05
80164;BME280;70071;55.130;61.268;2023-11-21T09:44:13;98464.69;;;1.50;43.83
80164;BME280;70071;55.130;61.268;2023-11-21T09:46:43;98445.75;;;1.38;43.67
80164;BME280;70071;55.130;61.268;2023-11-21T09:49:10;98452.84;;;1.66;44.05
80164;BME280;70071;55.130;61.268;2023-11-21T09:51:40;98435.69;;;1.34;44.61
80164;BME280;70071;55.130;61.268;2023-11-21T09:54:10;98393.91;;;1.14;44.87
80164;BME280;70071;55.130;61.268;2023-11-21T09:56:40;98403.63;;;1.32;44.26
80164;BME280;70071;55.130;61.268;2023-11-21T09:59:06;98399.22;;;1.42;44.35
80164;BME280;70071;55.130;61.268;2023-11-21T10:01:33;98416.94;;;1.58;44.22
80164;BME280;70071;55.130;61.268;2023-11-21T10:04:01;98406.75;;;1.55;44.14
80164;BME280;70071;55.130;61.268;2023-11-21T10:06:28;98382.84;;;1.40;44.06
80164;BME280;70071;55.130;61.268;2023-11-21T10:08:56;98391.47;;;1.50;44.19
80164;BME280;70071;55.130;61.268;2023-11-21T10:11:24;98419.13;;;1.63;44.22
80164;BME280;70071;55.130;61.268;2023-11-21T10:13:54;98403.06;;;1.48;44.36
80164;BME280;70071;55.130;61.268;2023-11-21T10:16:25;98382.53;;;1.53;44.51
80164;BME280;70071;55.130;61.268;2023-11-21T10:18:52;98399.03;;;1.53;44.47
80164;BME280;70071;55.130;61.268;2023-11-21T10:21:21;98369.50;;;1.43;44.72
80164;BME280;70071;55.130;61.268;2023-11-21T10:23:47;98405.50;;;1.69;44.10
80164;BME280;70071;55.130;61.268;2023-11-21T10:26:13;98394.22;;;1.58;44.58
80164;BME280;70071;55.130;61.268;2023-11-21T10:28:58;98372.50;;;1.48;44.47
80164;BME280;70071;55.130;61.268;2023-11-21T10:31:27;98372.75;;;1.65;44.32
80164;BME280;70071;55.130;61.268;2023-11-21T10:33:53;98366.03;;;1.52;44.29
80164;BME280;70071;55.130;61.268;2023-11-21T10:36:28;98368.19;;;1.67;44.33
80164;BME280;70071;55.130;61.268;2023-11-21T10:38:54;98364.94;;;1.45;44.86
80164;BME280;70071;55.130;61.268;2023-11-21T10:41:20;98364.41;;;1.41;44.42
80164;BME280;70071;55.130;61.268;2023-11-21T10:43:47;98350.88;;;1.56;44.33
80164;BME280;70071;55.130;61.268;2023-11-21T10:46:14;98357.63;;;1.49;45.12
80164;BME280;70071;55.130;61.268;2023-11-21T10:48:44;98359.81;;;1.53;45.29
80164;BME280;70071;55.130;61.268;2023-11-21T10:51:09;98360.75;;;1.62;45.09
80164;BME280;70071;55.130;61.268;2023-11-21T10:53:42;98340.69;;;1.53;44.66
80164;BME280;70071;55.130;61.268;2023-11-21T10:56:08;98356.72;;;1.77;44.57
80164;BME280;70071;55.130;61.268;2023-11-21T10:58:43;98339.22;;;1.40;45.20
80164;BME280;70071;55.130;61.268;2023-11-21T11:01:09;98356.91;;;1.66;44.78
80164;BME280;70071;55.130;61.268;2023-11-21T11:03:41;98328.59;;;1.52;45.03
80164;BME280;70071;55.130;61.268;2023-11-21T11:06:08;98325.16;;;1.51;45.61
80164;BME280;70071;55.130;61.268;2023-11-21T11:08:37;98324.34;;;1.51;45.30
80164;BME280;70071;55.130;61.268;2023-11-21T11:11:07;98304.00;;;1.45;45.40
80164;BME280;70071;55.130;61.268;2023-11-21T11:13:33;98319.75;;;1.63;45.06
80164;BME280;70071;55.130;61.268;2023-11-21T11:16:00;98307.16;;;1.48;45.10
80164;BME280;70071;55.130;61.268;2023-11-21T11:18:33;98306.00;;;1.60;44.73
80164;BME280;70071;55.130;61.268;2023-11-21T11:21:18;98303.84;;;1.46;45.27
80164;BME280;70071;55.130;61.268;2023-11-21T11:24:29;98290.56;;;1.30;45.71
80164;BME280;70071;55.130;61.268;2023-11-21T11:27:10;98317.28;;;1.61;45.09
80164;BME280;70071;55.130;61.268;2023-11-21T11:29:51;98287.00;;;1.31;45.54
80164;BME280;70071;55.130;61.268;2023-11-21T11:35:33;98298.72;;;1.54;45.25
80164;BME280;70071;55.130;61.268;2023-11-21T11:38:01;98281.78;;;1.31;45.82
80164;BME280;70071;55.130;61.268;2023-11-21T11:43:26;98288.34;;;1.35;46.05
80164;BME280;70071;55.130;61.268;2023-11-21T11:45:56;98287.81;;;1.31;46.21
80164;BME280;70071;55.130;61.268;2023-11-21T11:48:22;98262.81;;;1.19;46.38
80164;BME280;70071;55.130;61.268;2023-11-21T11:51:04;98284.53;;;1.29;46.12
80164;BME280;70071;55.130;61.268;2023-11-21T11:53:48;98280.47;;;1.45;46.15
80164;BME280;70071;55.130;61.268;2023-11-21T11:56:29;98259.13;;;1.12;46.62
80164;BME280;70071;55.130;61.268;2023-11-21T11:59:04;98270.09;;;1.25;46.17
80164;BME280;70071;55.130;61.268;2023-11-21T12:01:33;98274.75;;;1.31;46.24
80164;BME280;70071;55.130;61.268;2023-11-21T12:06:43;98233.03;;;1.02;46.36
80164;BME280;70071;55.130;61.268;2023-11-21T12:09:20;98232.88;;;1.03;46.56
80164;BME280;70071;55.130;61.268;2023-11-21T12:11:48;98207.78;;;0.83;46.62
80164;BME280;70071;55.130;61.268;2023-11-21T12:14:15;98205.84;;;0.85;46.44
80164;BME280;70071;55.130;61.268;2023-11-21T12:16:42;98241.00;;;1.00;47.25
80164;BME280;70071;55.130;61.268;2023-11-21T12:19:09;98237.25;;;1.13;46.61
80164;BME280;70071;55.130;61.268;2023-11-21T12:21:36;98224.97;;;0.76;47.51
80164;BME280;70071;55.130;61.268;2023-11-21T12:24:03;98230.00;;;0.97;47.34
80164;BME280;70071;55.130;61.268;2023-11-21T12:26:29;98240.31;;;0.98;47.40
80164;BME280;70071;55.130;61.268;2023-11-21T12:28:55;98239.50;;;0.88;47.25
80164;BME280;70071;55.130;61.268;2023-11-21T12:31:23;98245.94;;;1.03;47.02
80164;BME280;70071;55.130;61.268;2023-11-21T12:33:50;98215.50;;;0.65;47.34
80164;BME280;70071;55.130;61.268;2023-11-21T12:36:16;98207.56;;;0.47;47.64
80164;BME280;70071;55.130;61.268;2023-11-21T12:38:42;98230.31;;;0.84;47.02
80164;BME280;70071;55.130;61.268;2023-11-21T12:41:11;98201.22;;;0.59;47.64
80164;BME280;70071;55.130;61.268;2023-11-21T12:43:38;98191.34;;;0.63;46.96
80164;BME280;70071;55.130;61.268;2023-11-21T12:46:09;98207.94;;;0.72;47.39
80164;BME280;70071;55.130;61.268;2023-11-21T12:48:42;98216.97;;;0.87;47.04
80164;BME280;70071;55.130;61.268;2023-11-21T12:51:10;98222.50;;;0.84;47.14
80164;BME280;70071;55.130;61.268;2023-11-21T12:53:40;98185.03;;;0.65;46.92
80164;BME280;70071;55.130;61.268;2023-11-21T12:56:09;98180.91;;;0.53;47.70
80164;BME280;70071;55.130;61.268;2023-11-21T12:58:36;98184.88;;;0.67;47.25
80164;BME280;70071;55.130;61.268;2023-11-21T13:01:06;98189.97;;;0.59;47.10
80164;BME280;70071;55.130;61.268;2023-11-21T13:03:40;98194.38;;;0.58;47.05
80164;BME280;70071;55.130;61.268;2023-11-21T13:06:07;98215.22;;;0.68;48.17